Time;durP1;ratioP1;P1;durP2;ratioP2;P2;SDS_P1;SDS_P2;PMS_P1;PMS_P2;Temp;Humidity;BMP_temperature;BMP_pressure;BME280_temperature;BME280_humidity;BME280_pressure;Samples;Min_cycle;Max_cycle;Signal;HPM_P1;HPM_P2
2022/07/24 00:00:24;;;;;;;7.45;2.70;;;15.80;99.90;;;;;;5026461;28;20102;-75
2022/07/24 00:02:50;;;;;;;7.97;2.75;;;15.70;99.90;;;;;;5029222;28;20215;-75
2022/07/24 00:05:15;;;;;;;9.02;2.90;;;15.70;99.90;;;;;;4992272;28;20103;-76
2022/07/24 00:07:41;;;;;;;6.93;2.58;;;15.70;99.90;;;;;;5008535;28;20200;-75
2022/07/24 00:10:08;;;;;;;10.90;3.00;;;15.70;99.90;;;;;;5029200;28;20033;-75
2022/07/24 00:12:34;;;;;;;6.70;2.50;;;15.70;99.90;;;;;;5017885;28;20040;-76
2022/07/24 00:15:00;;;;;;;8.10;2.70;;;15.40;99.90;;;;;;5028041;28;20268;-75
2022/07/24 00:17:25;;;;;;;7.80;2.70;;;15.70;99.90;;;;;;4995998;28;20261;-76
2022/07/24 00:19:51;;;;;;;7.38;2.50;;;15.70;99.90;;;;;;5031121;28;20089;-75
2022/07/24 00:22:17;;;;;;;7.97;2.60;;;15.70;99.90;;;;;;5027056;28;20101;-76
2022/07/24 00:24:43;;;;;;;8.32;2.60;;;15.70;99.90;;;;;;5011036;28;20144;-75
2022/07/24 00:27:08;;;;;;;7.05;2.67;;;15.60;99.90;;;;;;5020184;28;20040;-76
2022/07/24 00:29:34;;;;;;;6.88;2.55;;;15.60;99.90;;;;;;5024516;28;20058;-76
2022/07/24 00:32:00;;;;;;;7.18;2.65;;;15.60;99.90;;;;;;5003073;28;20030;-76
2022/07/24 00:34:26;;;;;;;8.27;2.72;;;15.10;99.90;;;;;;4986358;28;20112;-78
2022/07/24 00:36:51;;;;;;;8.07;3.10;;;15.60;99.90;;;;;;5019970;28;20085;-76
2022/07/24 00:39:17;;;;;;;7.05;2.88;;;15.50;99.90;;;;;;5021110;28;20080;-74
2022/07/24 00:41:43;;;;;;;7.10;2.67;;;15.50;99.90;;;;;;5006497;28;20056;-74
2022/07/24 00:44:12;;;;;;;7.90;3.13;;;15.50;99.90;;;;;;5005750;28;20049;-75
2022/07/24 00:46:40;;;;;;;8.38;3.25;;;15.50;99.90;;;;;;5021961;28;20285;-76
2022/07/24 00:49:11;;;;;;;8.35;3.20;;;15.50;99.90;;;;;;5005652;28;20280;-75
2022/07/24 00:51:40;;;;;;;9.13;3.58;;;15.50;99.90;;;;;;5023097;28;20272;-75
2022/07/24 00:54:08;;;;;;;8.65;3.42;;;15.50;99.90;;;;;;5007117;28;20040;-75
2022/07/24 00:56:34;;;;;;;9.27;3.70;;;15.50;99.90;;;;;;5004930;28;20034;-75
2022/07/24 00:59:01;;;;;;;8.45;3.72;;;15.50;99.90;;;;;;5021800;28;20038;-75
2022/07/24 01:01:27;;;;;;;10.52;4.10;;;15.50;99.90;;;;;;5021099;28;20072;-76
2022/07/24 01:03:53;;;;;;;8.43;3.55;;;15.50;99.90;;;;;;5020910;28;20037;-75
2022/07/24 01:06:19;;;;;;;8.13;3.35;;;15.50;99.90;;;;;;5022074;28;20026;-76
2022/07/24 01:08:46;;;;;;;8.57;3.60;;;15.50;99.90;;;;;;5021303;28;20037;-77
2022/07/24 01:11:12;;;;;;;8.73;3.75;;;15.50;99.90;;;;;;5006595;28;20033;-75
2022/07/24 01:13:39;;;;;;;9.32;4.00;;;15.50;99.90;;;;;;5022164;28;20037;-75
2022/07/24 01:16:06;;;;;;;8.48;3.67;;;15.50;99.90;;;;;;5022352;28;20272;-76
2022/07/24 01:18:32;;;;;;;7.90;3.85;;;15.50;99.90;;;;;;5003961;28;20213;-76
2022/07/24 01:20:58;;;;;;;7.72;3.88;;;15.50;99.90;;;;;;4987876;28;20025;-75
2022/07/24 01:23:24;;;;;;;8.98;4.03;;;15.50;99.90;;;;;;5006017;28;20105;-76
2022/07/24 01:25:50;;;;;;;9.57;3.90;;;15.50;99.90;;;;;;4989826;28;20046;-76
2022/07/24 01:28:16;;;;;;;9.05;3.55;;;15.50;99.90;;;;;;5021798;28;20030;-76
2022/07/24 01:30:42;;;;;;;8.75;3.83;;;15.50;99.90;;;;;;5002783;28;21038;-76
2022/07/24 01:33:08;;;;;;;8.77;3.70;;;15.50;99.90;;;;;;5004627;28;20204;-75
2022/07/24 01:35:34;;;;;;;9.55;3.63;;;15.80;99.90;;;;;;5005010;28;20289;-76
2022/07/24 01:37:59;;;;;;;8.68;3.50;;;15.50;99.90;;;;;;5006278;28;20046;-75
2022/07/24 01:40:25;;;;;;;10.15;4.10;;;15.50;99.90;;;;;;5020922;28;20065;-75
2022/07/24 01:42:51;;;;;;;8.75;4.05;;;15.50;99.90;;;;;;5002422;28;20052;-75
2022/07/24 01:45:18;;;;;;;8.93;4.03;;;15.50;99.90;;;;;;5021521;28;20276;-76
2022/07/24 01:47:44;;;;;;;9.13;4.00;;;15.50;99.90;;;;;;5021722;28;20035;-77
2022/07/24 01:50:14;;;;;;;8.77;4.05;;;15.50;99.90;;;;;;5002991;28;20042;-75
2022/07/24 01:52:40;;;;;;;8.35;3.70;;;16.70;99.90;;;;;;5020913;28;20102;-76
2022/07/24 01:55:07;;;;;;;8.63;3.90;;;15.50;99.90;;;;;;5003917;28;20191;-76
2022/07/24 01:57:33;;;;;;;9.25;4.13;;;15.50;99.90;;;;;;5003605;28;20034;-75
2022/07/24 02:00:00;;;;;;;10.27;4.60;;;15.50;99.90;;;;;;5020959;28;20150;-75
2022/07/24 02:02:26;;;;;;;8.23;3.85;;;15.50;99.90;;;;;;5004004;28;20061;-75
2022/07/24 02:04:52;;;;;;;11.23;4.40;;;15.50;99.90;;;;;;5020358;28;20041;-76
2022/07/24 02:07:18;;;;;;;8.63;4.20;;;15.50;99.90;;;;;;5003487;28;20037;-76
2022/07/24 02:09:44;;;;;;;9.90;4.28;;;15.50;99.90;;;;;;5004465;28;20044;-76
2022/07/24 02:12:10;;;;;;;8.32;3.95;;;15.40;99.90;;;;;;5003814;28;20029;-76
2022/07/24 02:14:36;;;;;;;9.50;4.18;;;15.40;99.90;;;;;;5003418;28;20244;-76
2022/07/24 02:17:02;;;;;;;8.35;4.20;;;15.50;99.90;;;;;;5005217;28;20029;-75
2022/07/24 02:19:27;;;;;;;9.57;4.32;;;15.40;99.90;;;;;;4987805;28;20057;-76
2022/07/24 02:21:53;;;;;;;8.50;4.00;;;15.40;99.90;;;;;;5020157;28;20041;-76
2022/07/24 02:24:19;;;;;;;9.40;4.00;;;15.40;99.90;;;;;;5005047;28;20018;-76
2022/07/24 02:26:45;;;;;;;11.60;4.30;;;15.50;99.90;;;;;;5019803;28;20112;-76
2022/07/24 02:29:11;;;;;;;9.48;4.00;;;15.50;99.90;;;;;;4987648;28;20033;-76
2022/07/24 02:31:36;;;;;;;8.45;3.80;;;15.50;99.90;;;;;;5004789;28;20200;-76
2022/07/24 02:34:05;;;;;;;8.45;4.00;;;15.50;99.90;;;;;;5003730;28;20037;-76
2022/07/24 02:36:31;;;;;;;8.27;3.83;;;15.40;99.90;;;;;;5003664;28;20204;-76
2022/07/24 02:38:56;;;;;;;10.43;4.47;;;15.50;99.90;;;;;;5020565;28;20041;-75
2022/07/24 02:41:22;;;;;;;9.68;4.22;;;14.60;99.90;;;;;;5003295;28;20041;-76
2022/07/24 02:43:48;;;;;;;8.93;4.13;;;15.40;99.90;;;;;;5019822;28;20033;-75
2022/07/24 02:46:14;;;;;;;8.45;4.18;;;15.40;99.90;;;;;;5020997;28;20092;-76
2022/07/24 02:48:40;;;;;;;9.45;4.20;;;15.50;99.90;;;;;;5003645;28;20125;-76
2022/07/24 02:51:06;;;;;;;9.32;4.20;;;15.40;99.90;;;;;;5020827;28;20069;-76
2022/07/24 02:53:31;;;;;;;10.40;4.20;;;15.50;99.90;;;;;;5018732;28;20037;-76
2022/07/24 02:55:58;;;;;;;9.55;4.10;;;15.40;99.90;;;;;;5020604;28;20046;-76
2022/07/24 02:58:23;;;;;;;10.00;4.20;;;16.70;99.90;;;;;;5004666;28;20144;-75
2022/07/24 03:00:49;;;;;;;8.70;3.90;;;15.40;99.90;;;;;;5003387;28;20026;-75
2022/07/24 03:03:15;;;;;;;9.35;4.28;;;15.40;99.90;;;;;;5004038;28;20032;-77
2022/07/24 03:05:41;;;;;;;10.40;4.43;;;15.40;99.90;;;;;;5003664;28;20052;-76
2022/07/24 03:08:07;;;;;;;11.15;4.75;;;15.40;99.90;;;;;;5018776;28;20322;-77
2022/07/24 03:10:33;;;;;;;8.13;3.92;;;15.40;99.90;;;;;;5003810;28;20049;-76
2022/07/24 03:12:59;;;;;;;9.90;4.30;;;15.40;99.90;;;;;;4988428;28;20106;-76
2022/07/24 03:15:25;;;;;;;10.45;4.43;;;15.40;99.90;;;;;;5002266;28;20046;-78
2022/07/24 03:17:53;;;;;;;9.95;4.35;;;15.40;99.90;;;;;;5020151;28;20157;-76
2022/07/24 03:20:20;;;;;;;10.40;4.22;;;15.40;99.90;;;;;;5003695;28;20052;-76
2022/07/24 03:22:46;;;;;;;9.07;4.55;;;15.40;99.90;;;;;;4987368;28;20049;-76
2022/07/24 03:25:16;;;;;;;9.23;4.53;;;15.20;99.90;;;;;;5019926;28;20088;-76
2022/07/24 03:27:42;;;;;;;9.15;4.60;;;15.40;99.90;;;;;;4987544;28;20036;-77
2022/07/24 03:30:09;;;;;;;8.40;4.25;;;15.40;99.90;;;;;;5002212;28;20046;-77
2022/07/24 03:32:34;;;;;;;8.77;4.40;;;15.40;99.90;;;;;;4987504;28;20033;-76
2022/07/24 03:35:00;;;;;;;8.52;4.13;;;15.40;99.90;;;;;;5004567;28;20097;-76
2022/07/24 03:37:26;;;;;;;8.50;4.20;;;15.40;99.90;;;;;;5018181;28;20303;-76
2022/07/24 03:39:52;;;;;;;9.00;4.65;;;15.40;99.90;;;;;;5000725;28;20042;-75
2022/07/24 03:42:18;;;;;;;11.20;4.50;;;15.40;99.90;;;;;;5002294;28;20272;-76
2022/07/24 03:44:44;;;;;;;9.43;4.40;;;15.40;99.90;;;;;;5018579;28;20034;-76
2022/07/24 03:47:10;;;;;;;9.98;4.40;;;15.40;99.90;;;;;;5020254;28;20041;-76
2022/07/24 03:49:36;;;;;;;9.00;4.53;;;15.40;99.90;;;;;;5003982;28;20049;-76
2022/07/24 03:52:02;;;;;;;8.73;4.25;;;15.50;99.90;;;;;;5020467;28;20033;-76
2022/07/24 03:54:28;;;;;;;8.82;4.50;;;15.50;99.90;;;;;;5002582;28;20181;-75
2022/07/24 03:56:53;;;;;;;8.50;4.28;;;15.40;99.90;;;;;;5018766;28;20056;-76
2022/07/24 03:59:19;;;;;;;10.93;4.80;;;15.40;99.90;;;;;;5018172;28;20037;-76
2022/07/24 04:01:45;;;;;;;8.05;3.97;;;15.50;99.90;;;;;;5003196;28;20044;-76
2022/07/24 04:04:11;;;;;;;8.52;4.10;;;15.50;99.90;;;;;;5018260;28;20224;-77
2022/07/24 04:06:37;;;;;;;10.25;4.60;;;15.50;99.90;;;;;;4987362;28;20030;-77
2022/07/24 04:09:04;;;;;;;8.55;4.28;;;15.50;99.90;;;;;;5019378;28;20037;-76
2022/07/24 04:11:31;;;;;;;9.65;4.53;;;15.50;99.90;;;;;;5017473;28;20040;-76
2022/07/24 04:13:56;;;;;;;8.95;4.65;;;15.60;99.90;;;;;;5005172;28;20085;-76
2022/07/24 04:16:22;;;;;;;8.73;4.43;;;15.60;99.90;;;;;;5022395;28;20036;-76
2022/07/24 04:18:48;;;;;;;10.57;4.35;;;15.60;99.90;;;;;;5022953;28;20042;-77
2022/07/24 04:21:14;;;;;;;11.13;5.15;;;15.20;99.90;;;;;;5006921;28;20041;-76
2022/07/24 04:23:40;;;;;;;9.75;4.28;;;15.60;99.90;;;;;;5006961;28;20097;-75
2022/07/24 04:26:06;;;;;;;9.70;4.20;;;15.60;99.90;;;;;;5022234;28;20335;-76
2022/07/24 04:28:32;;;;;;;8.95;4.50;;;15.60;99.90;;;;;;5004992;28;20046;-75
2022/07/24 04:30:58;;;;;;;10.02;4.90;;;15.50;99.90;;;;;;5006358;28;20046;-78
2022/07/24 04:33:24;;;;;;;9.90;4.70;;;15.60;99.90;;;;;;5024012;28;20117;-76
2022/07/24 04:35:50;;;;;;;9.80;5.00;;;15.50;99.90;;;;;;5005905;28;20041;-76
2022/07/24 04:38:16;;;;;;;9.05;4.10;;;15.60;99.90;;;;;;5005175;28;21075;-76
2022/07/24 04:40:42;;;;;;;10.02;4.57;;;15.60;99.90;;;;;;5006322;28;20054;-75
2022/07/24 04:43:09;;;;;;;8.18;4.05;;;15.70;99.90;;;;;;5005843;28;20045;-76
2022/07/24 04:45:34;;;;;;;9.75;4.68;;;15.70;99.90;;;;;;5019441;28;20038;-76
2022/07/24 04:48:00;;;;;;;9.70;4.35;;;15.70;99.90;;;;;;4989979;28;20094;-76
2022/07/24 04:50:26;;;;;;;9.15;4.88;;;15.70;99.90;;;;;;5006530;28;20054;-75
2022/07/24 04:52:52;;;;;;;9.48;4.90;;;15.80;99.90;;;;;;5007037;28;20022;-76
2022/07/24 04:55:18;;;;;;;12.40;4.63;;;15.80;99.90;;;;;;5020812;28;20261;-75
2022/07/24 04:57:44;;;;;;;9.27;4.85;;;15.80;99.90;;;;;;5004825;28;20018;-75
2022/07/24 05:00:12;;;;;;;10.27;4.30;;;15.80;99.90;;;;;;5022570;28;20061;-76
2022/07/24 05:02:38;;;;;;;9.18;4.68;;;15.80;99.90;;;;;;5022054;28;20251;-75
2022/07/24 05:05:04;;;;;;;9.50;4.90;;;15.90;99.90;;;;;;5006802;28;20061;-77
2022/07/24 05:07:30;;;;;;;9.77;4.43;;;15.90;99.90;;;;;;5039295;28;20042;-75
2022/07/24 05:09:57;;;;;;;9.57;4.32;;;15.90;99.90;;;;;;5003985;28;20069;-76
2022/07/24 05:12:23;;;;;;;10.00;4.43;;;16.00;99.90;;;;;;5020823;28;20308;-75
2022/07/24 05:14:49;;;;;;;9.80;4.53;;;16.00;99.90;;;;;;5004973;28;20030;-76
2022/07/24 05:17:15;;;;;;;9.60;4.60;;;16.10;99.90;;;;;;5005784;28;20018;-76
2022/07/24 05:19:41;;;;;;;10.18;5.00;;;16.20;99.90;;;;;;5021150;28;20221;-76
2022/07/24 05:22:07;;;;;;;10.93;4.88;;;16.20;99.90;;;;;;5022016;28;20022;-76
2022/07/24 05:24:33;;;;;;;9.75;4.65;;;16.40;99.90;;;;;;5021215;28;20108;-76
2022/07/24 05:26:58;;;;;;;9.75;4.55;;;16.50;99.90;;;;;;5038947;28;20117;-77
2022/07/24 05:29:24;;;;;;;10.38;4.57;;;16.50;99.90;;;;;;4990111;28;20310;-75
2022/07/24 05:31:51;;;;;;;11.55;4.97;;;16.60;99.90;;;;;;5004631;28;20260;-76
2022/07/24 05:34:17;;;;;;;12.15;4.90;;;16.70;99.90;;;;;;5003415;28;20204;-75
2022/07/24 05:36:43;;;;;;;10.00;4.50;;;16.80;99.90;;;;;;5021928;28;20172;-76
2022/07/24 05:39:09;;;;;;;9.65;4.55;;;16.90;99.90;;;;;;5021278;28;20034;-76
2022/07/24 05:41:35;;;;;;;9.30;4.47;;;17.10;99.90;;;;;;5005150;28;20049;-76
2022/07/24 05:44:01;;;;;;;10.38;4.68;;;17.30;99.90;;;;;;4987481;28;20026;-76
2022/07/24 05:46:27;;;;;;;8.30;3.90;;;17.40;99.90;;;;;;5004039;28;20335;-76
2022/07/24 05:48:52;;;;;;;10.13;4.47;;;17.40;99.90;;;;;;5022459;28;20038;-76
2022/07/24 05:51:18;;;;;;;9.80;4.38;;;17.50;99.90;;;;;;5004521;28;20026;-76
2022/07/24 05:53:44;;;;;;;9.02;4.85;;;17.50;99.90;;;;;;4988026;28;20291;-76
2022/07/24 05:56:10;;;;;;;9.13;4.85;;;17.60;99.90;;;;;;5019576;28;20170;-77
2022/07/24 05:58:35;;;;;;;8.80;4.60;;;17.60;99.90;;;;;;5004724;28;20026;-76
2022/07/24 06:01:01;;;;;;;8.95;4.47;;;17.60;99.90;;;;;;5003262;28;20040;-77
2022/07/24 06:03:27;;;;;;;9.52;4.43;;;17.60;99.90;;;;;;5004371;28;20058;-76
2022/07/24 06:05:53;;;;;;;9.48;4.68;;;17.70;99.90;;;;;;4987649;28;20045;-76
2022/07/24 06:08:18;;;;;;;10.55;5.00;;;17.80;99.90;;;;;;5000013;28;20033;-76
2022/07/24 06:10:45;;;;;;;9.73;4.72;;;17.90;99.90;;;;;;5019586;28;20089;-76
2022/07/24 06:13:10;;;;;;;9.82;4.45;;;18.00;99.90;;;;;;5002703;28;20089;-76
2022/07/24 06:15:37;;;;;;;11.23;4.50;;;18.20;99.90;;;;;;5004611;28;20028;-77
2022/07/24 06:18:03;;;;;;;8.98;4.65;;;18.30;99.90;;;;;;5005513;28;20045;-76
2022/07/24 06:20:29;;;;;;;9.07;4.70;;;18.40;99.90;;;;;;5021970;28;20259;-77
2022/07/24 06:22:55;;;;;;;10.75;5.43;;;18.50;99.90;;;;;;5021918;28;20040;-76
2022/07/24 06:25:21;;;;;;;9.68;4.93;;;18.70;99.90;;;;;;5005352;28;20048;-76
2022/07/24 06:27:49;;;;;;;9.40;4.75;;;18.80;99.90;;;;;;5020675;28;20037;-75
2022/07/24 06:30:21;;;;;;;9.50;5.07;;;18.90;99.90;;;;;;5021717;28;20041;-77
2022/07/24 06:32:47;;;;;;;9.00;4.85;;;18.90;99.90;;;;;;5005328;28;20045;-75
2022/07/24 06:35:14;;;;;;;9.95;5.43;;;18.90;99.90;;;;;;5021719;28;20045;-76
2022/07/24 06:37:40;;;;;;;11.73;5.78;;;19.00;99.90;;;;;;5021202;28;20032;-80
2022/07/24 06:40:06;;;;;;;10.02;5.50;;;19.00;99.90;;;;;;5020444;28;20065;-77
2022/07/24 06:42:32;;;;;;;10.60;5.95;;;19.10;99.90;;;;;;5021777;28;20030;-76
2022/07/24 06:44:58;;;;;;;11.88;5.72;;;19.20;99.90;;;;;;5005106;28;20049;-77
2022/07/24 06:47:25;;;;;;;10.93;5.93;;;19.40;99.90;;;;;;4988701;28;20030;-77
2022/07/24 06:49:52;;;;;;;11.63;6.93;;;19.50;99.90;;;;;;5004152;28;20033;-77
2022/07/24 06:52:19;;;;;;;11.35;6.32;;;19.60;99.90;;;;;;5021106;28;20029;-77
2022/07/24 06:54:44;;;;;;;12.85;6.82;;;19.70;99.90;;;;;;5021429;28;20038;-76
2022/07/24 06:57:10;;;;;;;13.40;6.65;;;19.80;99.90;;;;;;5004760;28;20104;-77
2022/07/24 06:59:36;;;;;;;12.95;7.18;;;19.90;99.90;;;;;;5004944;28;20169;-76
2022/07/24 07:02:02;;;;;;;12.27;6.70;;;20.10;99.90;;;;;;5020192;28;20086;-76
2022/07/24 07:04:28;;;;;;;16.30;7.30;;;20.10;99.90;;;;;;5021305;28;20192;-77
2022/07/24 07:06:54;;;;;;;12.18;7.13;;;20.20;99.90;;;;;;5004938;28;20041;-78
2022/07/24 07:09:19;;;;;;;12.55;7.72;;;20.30;99.90;;;;;;5021027;28;20089;-76
2022/07/24 07:11:45;;;;;;;11.95;7.38;;;20.30;99.90;;;;;;5003724;28;20344;-76
2022/07/24 07:14:11;;;;;;;14.05;7.72;;;20.40;99.90;;;;;;5015473;28;20253;-77
2022/07/24 07:16:37;;;;;;;13.95;7.65;;;20.80;99.90;;;;;;5004217;28;20269;-80
2022/07/24 07:19:03;;;;;;;14.70;7.72;;;21.40;99.90;;;;;;4998627;28;20268;-76
2022/07/24 07:21:28;;;;;;;12.27;7.72;;;20.70;99.90;;;;;;5010968;28;20033;-77
2022/07/24 07:23:54;;;;;;;11.70;7.57;;;20.70;99.90;;;;;;4998837;28;20244;-78
2022/07/24 07:26:20;;;;;;;12.45;7.60;;;20.70;99.90;;;;;;5016357;28;20045;-77
2022/07/24 07:28:46;;;;;;;14.40;7.78;;;20.80;99.90;;;;;;4984275;28;20100;-76
2022/07/24 07:31:12;;;;;;;14.27;8.88;;;20.90;99.90;;;;;;4999701;28;20069;-76
2022/07/24 07:33:38;;;;;;;14.70;8.13;;;21.00;99.90;;;;;;5016985;28;20025;-77
2022/07/24 07:36:04;;;;;;;15.55;8.82;;;21.10;99.90;;;;;;4984158;28;20300;-77
2022/07/24 07:38:30;;;;;;;15.85;8.38;;;21.20;99.90;;;;;;4985514;28;20022;-79
2022/07/24 07:40:56;;;;;;;12.40;8.20;;;21.40;99.90;;;;;;4985079;28;20300;-77
2022/07/24 07:43:22;;;;;;;14.60;8.30;;;21.50;99.90;;;;;;4996340;28;20042;-77
2022/07/24 07:45:47;;;;;;;13.70;8.43;;;21.70;99.90;;;;;;5018800;28;20040;-78
2022/07/24 07:48:13;;;;;;;14.00;7.78;;;21.90;99.90;;;;;;5021146;28;20041;-77
2022/07/24 07:50:39;;;;;;;14.77;7.68;;;22.00;99.90;;;;;;5020284;28;20037;-79
2022/07/24 07:53:05;;;;;;;15.20;7.75;;;22.20;99.90;;;;;;5038594;28;20227;-76
2022/07/24 07:55:31;;;;;;;13.13;7.72;;;22.50;99.90;;;;;;5005650;28;20037;-76
2022/07/24 07:57:56;;;;;;;13.13;7.57;;;22.70;99.90;;;;;;5022212;28;20030;-77
2022/07/24 08:00:22;;;;;;;11.60;6.15;;;22.60;99.90;;;;;;5004379;28;20034;-77
2022/07/24 08:02:48;;;;;;;10.73;5.78;;;22.60;99.90;;;;;;5005810;28;20064;-76
2022/07/24 08:05:14;;;;;;;11.68;6.22;;;22.50;99.90;;;;;;5006324;28;20232;-78
2022/07/24 08:07:40;;;;;;;12.02;5.97;;;22.40;99.90;;;;;;5005957;28;20034;-78
2022/07/24 08:10:06;;;;;;;11.43;5.90;;;22.30;99.90;;;;;;5007940;28;20058;-77
2022/07/24 08:12:32;;;;;;;9.05;4.70;;;22.30;99.90;;;;;;5008187;28;20061;-79
2022/07/24 08:14:58;;;;;;;10.20;5.07;;;22.40;99.90;;;;;;5008133;28;20068;-77
2022/07/24 08:17:23;;;;;;;9.55;4.45;;;22.40;99.90;;;;;;5004593;28;20060;-78
2022/07/24 08:19:49;;;;;;;11.80;4.63;;;22.70;99.90;;;;;;5007198;28;20065;-78
2022/07/24 08:22:15;;;;;;;8.63;4.03;;;23.00;99.90;;;;;;4990842;28;20040;-76
2022/07/24 08:24:41;;;;;;;10.35;3.88;;;23.00;99.90;;;;;;4989857;28;20048;-76
2022/07/24 08:27:07;;;;;;;9.32;4.00;;;23.00;99.90;;;;;;5020025;28;20101;-76
2022/07/24 08:29:33;;;;;;;8.00;3.60;;;23.10;99.90;;;;;;5005447;28;20177;-78
2022/07/24 08:31:58;;;;;;;8.80;3.42;;;23.20;99.90;;;;;;5004175;28;20276;-78
2022/07/24 08:34:24;;;;;;;8.75;3.72;;;23.40;99.90;;;;;;5023438;28;20251;-76
2022/07/24 08:36:57;;;;;;;8.35;3.10;;;23.50;99.90;;;;;;5019271;28;20340;-77
2022/07/24 08:39:23;;;;;;;10.85;3.42;;;23.60;99.90;;;;;;5019590;28;20077;-77
2022/07/24 08:41:49;;;;;;;9.95;3.53;;;23.60;99.90;;;;;;5023019;28;20065;-78
2022/07/24 08:44:15;;;;;;;10.73;3.28;;;23.70;99.90;;;;;;4989583;28;20043;-77
2022/07/24 08:46:42;;;;;;;7.75;3.28;;;23.90;99.90;;;;;;4987214;28;20033;-76
2022/07/24 08:49:12;;;;;;;10.80;3.45;;;24.00;99.90;;;;;;5007079;28;20280;-76
2022/07/24 08:51:41;;;;;;;8.60;2.97;;;24.00;99.90;;;;;;5006637;28;20060;-78
2022/07/24 08:54:08;;;;;;;8.23;3.20;;;23.90;99.90;;;;;;5006062;28;20052;-78
2022/07/24 08:56:36;;;;;;;7.57;3.13;;;23.80;99.90;;;;;;5002711;28;20319;-78
2022/07/24 08:59:03;;;;;;;9.43;3.33;;;23.80;99.90;;;;;;5019738;28;20089;-77
2022/07/24 09:01:29;;;;;;;7.88;2.97;;;23.90;99.90;;;;;;5019174;28;20152;-79
2022/07/24 09:03:55;;;;;;;8.38;3.20;;;24.10;99.90;;;;;;5017964;28;20077;-78
2022/07/24 09:06:22;;;;;;;9.00;3.47;;;24.30;99.90;;;;;;5004591;28;20160;-74
2022/07/24 09:09:03;;;;;;;7.60;3.10;;;24.40;99.90;;;;;;4989375;28;20026;-78
2022/07/24 09:11:29;;;;;;;7.43;2.70;;;24.50;99.90;;;;;;5005915;28;20033;-77
2022/07/24 09:17:08;;;;;;;8.25;2.90;;;24.40;99.90;;;;;;4984859;28;20058;-78
2022/07/24 09:19:59;;;;;;;7.90;2.97;;;24.40;99.90;;;;;;4984558;28;20082;-77
2022/07/24 09:22:36;;;;;;;8.00;2.63;;;24.40;99.90;;;;;;4993347;28;20037;-77
2022/07/24 09:25:29;;;;;;;7.20;2.83;;;24.30;99.90;;;;;;5013855;28;20294;-79
2022/07/24 09:27:58;;;;;;;;;;;24.20;99.90;;;;;;5001461;28;20034;-77
2022/07/24 09:30:37;;;;;;;7.00;2.88;;;24.10;99.90;;;;;;5019968;28;19918;-77
2022/07/24 09:33:07;;;;;;;7.28;3.10;;;24.10;99.90;;;;;;5004035;28;20033;-76
2022/07/24 09:35:42;;;;;;;12.50;3.67;;;24.10;99.90;;;;;;5022907;28;20050;-76
2022/07/24 09:38:14;;;;;;;8.77;2.95;;;24.20;99.90;;;;;;5019886;28;20030;-77
2022/07/24 09:40:46;;;;;;;7.57;2.95;;;24.30;99.90;;;;;;5004122;28;20045;-76
2022/07/24 09:43:15;;;;;;;8.43;3.28;;;24.30;99.90;;;;;;5020802;28;20284;-77
2022/07/24 09:46:01;;;;;;;8.20;3.25;;;24.60;99.90;;;;;;5005480;28;20088;-77
2022/07/24 09:48:38;;;;;;;7.07;2.85;;;24.60;99.90;;;;;;5020329;28;20203;-79
2022/07/24 09:51:09;;;;;;;7.70;2.90;;;24.70;99.90;;;;;;5003983;28;20037;-79
2022/07/24 09:53:35;;;;;;;8.00;3.00;;;24.70;99.90;;;;;;5037916;28;20038;-78
2022/07/24 09:56:05;;;;;;;7.28;2.97;;;24.70;99.90;;;;;;5022971;28;20230;-79
2022/07/24 09:58:33;;;;;;;9.60;2.75;;;24.70;99.90;;;;;;5016834;28;20042;-76
2022/07/24 10:01:00;;;;;;;7.32;2.60;;;24.80;99.90;;;;;;5020951;28;20038;-76
2022/07/24 10:03:29;;;;;;;7.97;2.80;;;24.90;99.90;;;;;;5017576;28;20125;-77
2022/07/24 10:06:00;;;;;;;7.65;2.88;;;25.00;99.90;;;;;;5021389;28;20034;-76
2022/07/24 10:08:26;;;;;;;7.63;2.70;;;25.10;99.90;;;;;;5014730;28;20105;-76
2022/07/24 10:10:53;;;;;;;10.65;2.92;;;25.20;99.90;;;;;;4999371;28;20038;-75
2022/07/24 10:13:19;;;;;;;7.82;2.80;;;25.30;99.90;;;;;;5005778;28;20097;-76
2022/07/24 10:15:56;;;;;;;6.88;2.83;;;25.50;99.90;;;;;;5037908;28;20066;-75
2022/07/24 10:18:37;;;;;;;6.97;2.78;;;25.60;99.90;;;;;;5021967;28;20237;-76
2022/07/24 10:21:10;;;;;;;8.65;2.83;;;25.80;99.90;;;;;;5022167;28;20119;-76
2022/07/24 10:24:17;;;;;;;6.13;2.55;;;25.90;99.90;;;;;;5005242;28;20046;-77
2022/07/24 10:26:47;;;;;;;6.50;2.63;;;26.00;99.90;;;;;;5005251;28;20108;-75
2022/07/24 10:29:34;;;;;;;8.05;2.72;;;25.90;99.90;;;;;;5021912;28;20128;-77
2022/07/24 10:32:12;;;;;;;7.13;2.65;;;25.80;99.90;;;;;;5022057;28;20032;-76
2022/07/24 10:34:43;;;;;;;7.20;2.53;;;25.80;99.90;;;;;;5018883;28;20102;-77
2022/07/24 10:37:27;;;;;;;7.72;2.60;;;25.90;99.90;;;;;;5019845;28;20046;-77
2022/07/24 10:40:14;;;;;;;7.40;2.42;;;26.00;99.90;;;;;;5022800;28;20053;-76
2022/07/24 10:43:08;;;;;;;6.85;2.78;;;25.90;99.90;;;;;;5021604;28;20052;-76
2022/07/24 10:45:55;;;;;;;7.18;2.70;;;25.90;99.90;;;;;;5004347;28;20260;-75
2022/07/24 10:48:27;;;;;;;7.72;3.10;;;25.80;99.90;;;;;;5021451;28;20029;-76
2022/07/24 10:51:13;;;;;;;7.90;2.70;;;25.70;99.90;;;;;;5021574;28;20041;-77
2022/07/24 10:53:46;;;;;;;8.45;2.40;;;25.70;99.90;;;;;;5004835;28;20044;-74
2022/07/24 10:56:19;;;;;;;7.90;2.67;;;25.60;99.90;;;;;;5004283;28;20158;-77
2022/07/24 10:58:57;;;;;;;9.23;3.00;;;25.50;99.90;;;;;;5005002;28;20083;-75
2022/07/24 11:01:57;;;;;;;6.25;2.50;;;25.50;99.90;;;;;;5021016;28;20177;-73
2022/07/24 11:04:27;;;;;;;8.43;2.40;;;25.40;99.90;;;;;;5004718;28;20044;-76
2022/07/24 11:07:11;;;;;;;7.22;2.58;;;25.50;99.90;;;;;;5004139;28;20038;-76
2022/07/24 11:10:01;;;;;;;8.45;2.65;;;25.70;99.90;;;;;;5021286;28;20087;-76
2022/07/24 11:12:32;;;;;;;6.78;2.72;;;26.00;99.90;;;;;;5021029;28;20276;-76
2022/07/24 11:15:53;;;;;;;7.23;2.80;;;25.90;99.90;;;;;;5004980;28;20077;-76
2022/07/24 11:17:47;;;;;;;8.73;2.95;;;25.90;99.90;;;;;;5019674;28;20575;-77
2022/07/24 11:20:24;;;;;;;6.90;2.38;;;25.90;99.90;;;;;;4975173;28;20060;-76
2022/07/24 11:22:57;;;;;;;6.07;2.40;;;25.90;99.90;;;;;;5020804;28;20045;-75
2022/07/24 11:25:28;;;;;;;7.40;2.72;;;25.90;99.90;;;;;;5020941;28;20042;-75
2022/07/24 11:28:08;;;;;;;5.90;2.38;;;26.00;99.90;;;;;;5020024;28;20045;-75
2022/07/24 11:30:42;;;;;;;7.30;2.75;;;26.00;99.90;;;;;;5021132;28;20034;-75
2022/07/24 11:33:10;;;;;;;7.40;2.65;;;26.30;99.90;;;;;;5020733;28;20280;-75
2022/07/24 11:35:39;;;;;;;7.70;2.33;;;26.50;99.90;;;;;;5004422;28;20145;-76
2022/07/24 11:38:07;;;;;;;7.38;2.47;;;26.60;99.90;;;;;;5019860;28;20045;-75
2022/07/24 11:40:34;;;;;;;7.22;2.75;;;26.70;99.90;;;;;;4987406;28;20049;-76
2022/07/24 11:43:02;;;;;;;7.72;2.80;;;26.80;99.90;;;;;;5020787;28;20057;-77
2022/07/24 11:45:31;;;;;;;6.95;2.90;;;26.90;99.90;;;;;;5020778;28;20034;-75
2022/07/24 11:47:57;;;;;;;6.88;2.50;;;27.00;99.90;;;;;;5020669;28;20121;-75
2022/07/24 11:50:25;;;;;;;7.50;2.50;;;27.10;99.90;;;;;;5003500;28;20093;-76
2022/07/24 11:52:51;;;;;;;7.00;2.47;;;27.10;99.90;;;;;;5020674;28;20034;-76
2022/07/24 11:55:19;;;;;;;6.43;2.47;;;27.20;99.90;;;;;;5021139;28;20041;-77
2022/07/24 11:57:51;;;;;;;7.28;2.40;;;27.20;99.90;;;;;;5020593;28;20026;-78
2022/07/24 12:00:24;;;;;;;6.03;2.38;;;27.20;99.90;;;;;;5019694;28;20231;-77
2022/07/24 12:02:58;;;;;;;8.32;2.50;;;27.20;99.90;;;;;;5003882;28;20115;-76
2022/07/24 12:05:31;;;;;;;7.78;2.60;;;27.20;99.90;;;;;;5020559;28;20049;-75
2022/07/24 12:07:59;;;;;;;8.10;2.97;;;27.30;99.90;;;;;;5020478;28;20046;-76
2022/07/24 12:10:26;;;;;;;7.22;2.53;;;27.40;99.90;;;;;;5019523;28;20060;-75
2022/07/24 12:12:54;;;;;;;6.68;2.50;;;27.40;99.90;;;;;;5020387;28;20038;-76
2022/07/24 12:15:21;;;;;;;5.95;2.28;;;27.40;99.90;;;;;;5001379;28;20032;-77
2022/07/24 12:17:55;;;;;;;6.90;2.33;;;27.40;99.90;;;;;;5006572;28;20030;-78
2022/07/24 12:23:01;;;;;;;5.32;2.13;;;27.50;99.90;;;;;;3314725;26;20538;-88
2022/07/24 12:25:28;;;;;;;7.90;2.40;;;27.70;99.90;;;;;;4936950;28;21103;-88
2022/07/24 12:28:03;;;;;;;6.55;2.47;;;27.70;99.90;;;;;;4935038;28;20043;-88
2022/07/24 12:30:32;;;;;;;6.70;2.47;;;27.70;99.90;;;;;;4951437;28;20047;-87
2022/07/24 12:32:59;;;;;;;7.50;2.70;;;27.70;99.90;;;;;;4969923;28;20487;-87
2022/07/24 12:35:26;;;;;;;7.43;2.63;;;27.70;99.90;;;;;;4952263;28;20133;-87
2022/07/24 12:37:53;;;;;;;5.70;2.30;;;27.70;99.90;;;;;;4941014;28;20039;-88
2022/07/24 12:40:32;;;;;;;7.15;2.60;;;27.80;99.90;;;;;;4940227;28;20041;-88
2022/07/24 12:43:10;;;;;;;6.85;2.25;;;27.90;99.90;;;;;;4936319;28;22031;-88
2022/07/24 12:45:37;;;;;;;6.93;2.60;;;27.90;99.90;;;;;;4933559;28;20480;-89
2022/07/24 12:48:11;;;;;;;7.00;2.30;;;28.00;99.90;;;;;;4955543;28;20035;-88
2022/07/24 12:50:37;;;;;;;7.13;2.58;;;28.10;99.90;;;;;;4939982;28;20046;-88
2022/07/24 12:53:05;;;;;;;6.95;2.45;;;28.20;99.90;;;;;;4965376;28;20566;-90
2022/07/24 12:55:31;;;;;;;6.65;2.38;;;28.10;99.90;;;;;;4986203;28;20416;-88